createdAt,value
2018-06-13T00:00:01.540Z,3.53
2018-06-13T00:02:29.858Z,3.30
2018-06-13T00:04:58.194Z,3.40
2018-06-13T00:07:26.501Z,3.73
2018-06-13T00:09:54.836Z,4.03
2018-06-13T00:12:23.165Z,3.50
2018-06-13T00:14:51.502Z,3.47
2018-06-13T00:17:19.825Z,3.80
2018-06-13T00:19:48.173Z,4.00
2018-06-13T00:22:16.485Z,4.70
2018-06-13T00:24:44.821Z,3.80
2018-06-13T00:27:13.244Z,4.60
2018-06-13T00:29:41.589Z,3.30
2018-06-13T00:32:09.912Z,3.40
2018-06-13T00:34:38.260Z,3.67
2018-06-13T00:37:06.609Z,3.67
2018-06-13T00:39:34.934Z,4.33
2018-06-13T00:42:03.274Z,3.33
2018-06-13T00:44:31.597Z,3.50
2018-06-13T00:46:59.936Z,3.90
2018-06-13T00:49:28.244Z,3.27
2018-06-13T00:51:56.570Z,4.00
2018-06-13T00:54:24.880Z,3.90
2018-06-13T00:56:53.211Z,3.57
2018-06-13T00:59:21.513Z,4.00
2018-06-13T01:01:49.840Z,4.40
2018-06-13T01:04:18.157Z,3.13
2018-06-13T01:06:46.484Z,3.73
2018-06-13T01:09:14.805Z,3.70
2018-06-13T01:11:43.153Z,3.67
2018-06-13T01:14:11.459Z,3.90
2018-06-13T01:16:39.789Z,3.40
2018-06-13T01:19:08.096Z,3.57
2018-06-13T01:21:36.432Z,4.40
2018-06-13T01:24:04.749Z,3.50
2018-06-13T01:26:33.076Z,3.37
2018-06-13T01:29:01.376Z,3.50
2018-06-13T01:31:29.709Z,4.00
2018-06-13T01:33:58.047Z,3.47
2018-06-13T01:36:28.690Z,3.87
2018-06-13T01:38:57.237Z,3.47
2018-06-13T01:41:25.642Z,3.70
2018-06-13T01:43:54.000Z,3.50
2018-06-13T01:46:22.309Z,3.63
2018-06-13T01:48:50.629Z,4.03
2018-06-13T01:51:18.965Z,4.10
2018-06-13T01:53:47.276Z,3.87
2018-06-13T01:56:15.617Z,3.43
2018-06-13T01:58:43.927Z,3.30
2018-06-13T02:01:12.274Z,4.13
2018-06-13T02:03:40.585Z,3.10
2018-06-13T02:06:08.909Z,3.47
2018-06-13T02:08:37.240Z,4.03
2018-06-13T02:11:05.577Z,3.40
2018-06-13T02:13:33.905Z,3.60
2018-06-13T02:16:02.226Z,3.60
2018-06-13T02:18:30.585Z,3.87
2018-06-13T02:20:58.897Z,3.80
2018-06-13T02:23:27.253Z,4.67
2018-06-13T02:25:55.582Z,3.70
2018-06-13T02:28:23.916Z,3.60
2018-06-13T02:30:52.225Z,3.57
2018-06-13T02:33:20.560Z,4.20
2018-06-13T02:35:48.878Z,3.57
2018-06-13T02:38:17.200Z,4.33
2018-06-13T02:40:45.519Z,3.90
2018-06-13T02:43:13.850Z,3.90
2018-06-13T02:45:42.157Z,4.80
2018-06-13T02:48:10.493Z,3.23
2018-06-13T02:50:38.805Z,3.80
2018-06-13T02:53:07.154Z,3.97
2018-06-13T02:55:35.465Z,3.90
2018-06-13T02:58:03.823Z,4.13
2018-06-13T03:00:32.140Z,4.13
2018-06-13T03:03:00.466Z,3.60
2018-06-13T03:05:28.831Z,4.20
2018-06-13T03:07:57.173Z,4.30
2018-06-13T03:10:25.494Z,3.87
2018-06-13T03:12:53.857Z,4.10
2018-06-13T03:15:22.169Z,3.47
2018-06-13T03:17:50.509Z,3.17
2018-06-13T03:20:18.809Z,3.90
2018-06-13T03:22:47.121Z,4.40
2018-06-13T03:25:15.462Z,3.83
2018-06-13T03:27:43.777Z,3.40
2018-06-13T03:30:12.109Z,3.50
2018-06-13T03:32:40.421Z,3.83
2018-06-13T03:35:08.757Z,4.20
2018-06-13T03:37:37.127Z,4.10
2018-06-13T03:40:05.465Z,4.07
2018-06-13T03:42:33.771Z,3.50
2018-06-13T03:45:01.849Z,3.60
2018-06-13T03:47:30.193Z,3.63
2018-06-13T03:49:58.535Z,3.23
2018-06-13T03:52:26.868Z,3.10
2018-06-13T03:54:55.189Z,3.13
2018-06-13T03:57:23.501Z,3.50
2018-06-13T03:59:51.836Z,3.80
2018-06-13T04:02:20.156Z,4.70
2018-06-13T04:04:48.484Z,3.37
2018-06-13T04:07:16.863Z,3.87
2018-06-13T04:09:45.180Z,3.03
2018-06-13T04:12:13.518Z,3.33
2018-06-13T04:14:41.861Z,2.92
2018-06-13T04:17:10.173Z,3.70
2018-06-13T04:19:38.509Z,3.63
2018-06-13T04:22:06.573Z,3.40
2018-06-13T04:24:34.901Z,3.10
2018-06-13T04:27:03.217Z,3.20
2018-06-13T04:29:31.553Z,3.52
2018-06-13T04:31:59.880Z,3.50
2018-06-13T04:34:28.244Z,3.70
2018-06-13T04:36:56.557Z,3.47
2018-06-13T04:39:24.874Z,3.30
2018-06-13T04:41:53.270Z,3.45
2018-06-13T04:44:21.564Z,4.03
2018-06-13T04:46:49.897Z,3.63
2018-06-13T04:49:18.209Z,3.57
2018-06-13T04:51:46.537Z,3.05
2018-06-13T04:54:14.842Z,3.50
2018-06-13T04:56:43.177Z,3.63
2018-06-13T04:59:11.490Z,4.30
2018-06-13T05:01:39.867Z,3.40
2018-06-13T05:04:08.162Z,4.10
2018-06-13T05:06:36.501Z,3.60
2018-06-13T05:09:07.150Z,3.77
2018-06-13T05:11:35.505Z,3.57
2018-06-13T05:14:03.848Z,3.30
2018-06-13T05:16:32.188Z,4.10
2018-06-13T05:19:00.506Z,4.10
2018-06-13T05:21:28.841Z,3.90
2018-06-13T05:23:57.164Z,3.70
2018-06-13T05:26:25.499Z,4.00
2018-06-13T05:28:53.836Z,3.77
2018-06-13T05:31:22.164Z,4.43
2018-06-13T05:33:50.477Z,4.10
2018-06-13T05:36:18.829Z,3.90
2018-06-13T05:38:47.142Z,3.50
2018-06-13T05:41:15.469Z,3.80
2018-06-13T05:43:43.783Z,4.40
2018-06-13T05:46:12.117Z,3.95
2018-06-13T05:48:40.425Z,4.23
2018-06-13T05:51:08.765Z,3.80
2018-06-13T05:53:37.198Z,3.73
2018-06-13T05:56:05.737Z,3.77
2018-06-13T05:58:34.069Z,3.97
2018-06-13T06:01:02.390Z,4.60
2018-06-13T06:03:30.722Z,4.40
2018-06-13T06:05:59.041Z,4.97
2018-06-13T06:08:27.429Z,3.95
2018-06-13T06:10:55.789Z,4.20
2018-06-13T06:13:24.121Z,4.47
2018-06-13T06:15:52.439Z,3.73
2018-06-13T06:18:20.768Z,4.30
2018-06-13T06:20:49.105Z,4.45
2018-06-13T06:23:17.432Z,4.10
2018-06-13T06:25:45.744Z,3.93
2018-06-13T06:28:14.081Z,4.47
2018-06-13T06:30:42.394Z,4.07
2018-06-13T06:33:10.717Z,3.60
2018-06-13T06:35:39.026Z,4.07
2018-06-13T06:38:07.520Z,4.63
2018-06-13T06:40:35.838Z,4.70
2018-06-13T06:43:04.191Z,4.80
2018-06-13T06:45:32.511Z,4.33
2018-06-13T06:48:00.841Z,4.50
2018-06-13T06:50:29.153Z,4.80
2018-06-13T06:52:57.483Z,4.60
2018-06-13T06:55:25.860Z,4.63
2018-06-13T06:57:54.155Z,4.40
2018-06-13T07:00:22.461Z,4.80
2018-06-13T07:02:50.796Z,4.10
2018-06-13T07:05:19.157Z,4.93
2018-06-13T07:07:47.505Z,4.97
2018-06-13T07:10:15.815Z,3.93
2018-06-13T07:12:44.162Z,4.27
2018-06-13T07:15:12.481Z,4.00
2018-06-13T07:17:40.845Z,4.23
2018-06-13T07:20:09.160Z,3.97
2018-06-13T07:22:37.505Z,3.80
2018-06-13T07:25:05.885Z,4.07
2018-06-13T07:27:34.180Z,4.07
2018-06-13T07:30:02.514Z,3.47
2018-06-13T07:32:30.829Z,3.50
2018-06-13T07:34:59.158Z,2.60
2018-06-13T07:37:27.472Z,3.20
2018-06-13T07:39:55.796Z,3.40
2018-06-13T07:42:24.129Z,2.60
2018-06-13T07:44:52.454Z,3.70
2018-06-13T07:47:20.788Z,3.07
2018-06-13T07:49:49.119Z,3.30
2018-06-13T07:52:17.433Z,3.80
2018-06-13T07:54:45.520Z,3.33
2018-06-13T07:57:13.834Z,3.40
2018-06-13T07:59:42.169Z,2.93
2018-06-13T08:02:10.573Z,2.77
2018-06-13T08:04:38.941Z,3.10
2018-06-13T08:07:07.249Z,3.13
2018-06-13T08:09:35.568Z,3.23
2018-06-13T08:12:03.897Z,2.20
2018-06-13T08:14:32.229Z,3.30
2018-06-13T08:17:00.538Z,3.60
2018-06-13T08:19:29.075Z,4.00
2018-06-13T08:21:57.441Z,3.83
2018-06-13T08:24:25.777Z,4.15
2018-06-13T08:26:54.397Z,4.10
2018-06-13T08:29:23.213Z,5.00
2018-06-13T08:31:51.547Z,4.70
2018-06-13T08:34:19.892Z,5.37
2018-06-13T08:36:48.209Z,4.40
2018-06-13T08:39:16.520Z,5.70
2018-06-13T08:41:44.863Z,6.47
2018-06-13T08:44:13.173Z,6.10
2018-06-13T08:46:41.503Z,6.00
2018-06-13T08:49:09.817Z,6.70
2018-06-13T08:51:38.157Z,7.15
2018-06-13T08:54:06.604Z,6.50
2018-06-13T08:56:34.953Z,6.37
2018-06-13T08:59:03.261Z,7.13
2018-06-13T09:01:31.596Z,5.77
2018-06-13T09:03:59.913Z,6.17
2018-06-13T09:06:28.241Z,5.50
2018-06-13T09:08:56.571Z,5.97
2018-06-13T09:11:25.001Z,6.70
2018-06-13T09:13:53.320Z,5.30
2018-06-13T09:16:21.685Z,5.93
2018-06-13T09:18:50.014Z,6.70
2018-06-13T09:21:18.357Z,6.95
2018-06-13T09:23:46.711Z,5.37
2018-06-13T09:26:15.034Z,5.73
2018-06-13T09:28:43.349Z,5.90
2018-06-13T09:31:11.735Z,5.87
2018-06-13T09:33:40.009Z,5.53
2018-06-13T09:36:08.438Z,5.70
2018-06-13T09:38:36.756Z,5.50
2018-06-13T09:41:05.082Z,5.37
2018-06-13T09:43:33.381Z,5.37
2018-06-13T09:46:03.561Z,5.47
2018-06-13T09:48:30.051Z,5.37
2018-06-13T09:50:58.394Z,5.80
2018-06-13T09:53:26.706Z,5.83
2018-06-13T09:55:55.057Z,5.13
2018-06-13T09:58:23.361Z,6.03
2018-06-13T10:00:57.017Z,7.00
2018-06-13T10:03:25.330Z,6.50
2018-06-13T10:05:53.636Z,6.13
2018-06-13T10:08:21.962Z,6.90
2018-06-13T10:10:50.266Z,5.60
2018-06-13T10:13:18.616Z,5.80
2018-06-13T10:15:46.929Z,6.43
2018-06-13T10:18:15.366Z,6.63
2018-06-13T10:20:43.674Z,7.00
2018-06-13T10:23:11.993Z,6.10
2018-06-13T10:25:40.304Z,5.50
2018-06-13T10:28:08.680Z,4.77
2018-06-13T10:30:37.057Z,4.73
2018-06-13T10:33:05.390Z,4.60
2018-06-13T10:35:33.701Z,6.10
2018-06-13T10:38:02.030Z,5.33
2018-06-13T10:40:30.345Z,4.60
2018-06-13T10:42:58.677Z,4.70
2018-06-13T10:45:26.985Z,4.27
2018-06-13T10:47:55.309Z,4.97
2018-06-13T10:50:23.630Z,4.67
2018-06-13T10:52:51.977Z,5.10
2018-06-13T10:55:20.296Z,4.33
2018-06-13T10:57:48.629Z,4.70
2018-06-13T11:00:16.948Z,5.70
2018-06-13T11:02:45.273Z,4.67
2018-06-13T11:05:13.580Z,4.80
2018-06-13T11:07:41.900Z,4.70
2018-06-13T11:10:10.209Z,5.47
2018-06-13T11:12:38.554Z,4.83
2018-06-13T11:15:06.881Z,5.10
2018-06-13T11:17:35.242Z,5.27
2018-06-13T11:20:03.552Z,4.70
2018-06-13T11:22:31.848Z,5.40
2018-06-13T11:25:00.181Z,5.50
2018-06-13T11:27:28.492Z,5.40
2018-06-13T11:29:56.816Z,5.87
2018-06-13T11:32:25.137Z,4.70
2018-06-13T11:34:57.753Z,4.50
2018-06-13T11:37:27.036Z,3.63
2018-06-13T11:39:55.601Z,4.13
2018-06-13T11:42:23.917Z,4.30
2018-06-13T11:44:52.248Z,4.33
2018-06-13T11:47:20.569Z,4.10
2018-06-13T11:49:48.897Z,4.87
2018-06-13T11:52:17.215Z,5.30
2018-06-13T11:54:45.578Z,4.90
2018-06-13T11:57:13.881Z,4.40
2018-06-13T11:59:42.206Z,4.37
2018-06-13T12:02:10.513Z,4.50
2018-06-13T12:04:38.849Z,4.57
2018-06-13T12:07:07.257Z,4.30
2018-06-13T12:09:35.592Z,3.80
2018-06-13T12:12:03.933Z,4.60
2018-06-13T12:14:32.378Z,4.10
2018-06-13T12:17:00.753Z,4.10
2018-06-13T12:19:29.100Z,5.30
2018-06-13T12:21:57.429Z,4.13
2018-06-13T12:24:25.762Z,4.30
2018-06-13T12:26:54.065Z,3.80
2018-06-13T12:29:22.397Z,4.67
2018-06-13T12:31:50.717Z,4.80
2018-06-13T12:34:19.186Z,4.07
2018-06-13T12:36:47.509Z,4.20
2018-06-13T12:39:15.873Z,4.77
2018-06-13T12:41:44.193Z,3.70
2018-06-13T12:44:12.505Z,4.07
2018-06-13T12:46:40.846Z,5.10
2018-06-13T12:49:09.157Z,5.60
2018-06-13T12:51:37.572Z,4.60
2018-06-13T12:54:05.897Z,4.80
2018-06-13T12:56:34.345Z,4.20
2018-06-13T12:59:02.808Z,3.27
2018-06-13T13:01:31.033Z,4.00
2018-06-13T13:03:59.344Z,3.70
2018-06-13T13:06:27.679Z,3.10
2018-06-13T13:08:55.985Z,3.67
2018-06-13T13:11:24.329Z,3.10
2018-06-13T13:13:52.641Z,2.73
2018-06-13T13:16:21.055Z,2.53
2018-06-13T13:18:49.382Z,3.03
2018-06-13T13:21:17.714Z,3.07
2018-06-13T13:23:46.032Z,3.20
2018-06-13T13:26:14.356Z,3.70
2018-06-13T13:28:42.704Z,3.60
2018-06-13T13:31:11.034Z,4.60
2018-06-13T13:33:39.342Z,4.27
2018-06-13T13:36:07.704Z,4.93
2018-06-13T13:38:36.016Z,5.00
2018-06-13T13:41:04.413Z,6.07
2018-06-13T13:43:32.726Z,5.63
2018-06-13T13:46:01.126Z,6.40
2018-06-13T13:48:29.381Z,5.37
2018-06-13T13:50:57.509Z,5.90
2018-06-13T13:53:25.862Z,5.13
2018-06-13T13:55:54.785Z,5.40
2018-06-13T13:58:23.141Z,5.17
2018-06-13T14:00:51.445Z,5.40
2018-06-13T14:03:19.773Z,6.00
2018-06-13T14:05:48.109Z,5.37
2018-06-13T14:08:16.442Z,5.33
2018-06-13T14:10:44.753Z,3.33
2018-06-13T14:13:13.089Z,4.40
2018-06-13T14:15:41.414Z,2.90
2018-06-13T14:18:09.760Z,3.33
2018-06-13T14:20:38.058Z,3.60
2018-06-13T14:23:06.385Z,2.70
2018-06-13T14:25:34.777Z,2.63
2018-06-13T14:28:03.110Z,3.47
2018-06-13T14:30:31.486Z,2.83
2018-06-13T14:32:59.837Z,3.00
2018-06-13T14:35:28.163Z,3.37
2018-06-13T14:37:56.497Z,3.00
2018-06-13T14:40:24.800Z,3.77
2018-06-13T14:42:53.123Z,3.90
2018-06-13T14:45:21.443Z,3.43
2018-06-13T14:47:49.782Z,2.43
2018-06-13T14:50:18.217Z,2.40
2018-06-13T14:52:46.541Z,2.80
2018-06-13T14:55:14.592Z,2.93
2018-06-13T14:57:42.922Z,3.27
2018-06-13T15:00:11.233Z,2.07
2018-06-13T15:02:39.556Z,2.43
2018-06-13T15:05:07.881Z,1.90
2018-06-13T15:07:36.244Z,2.10
2018-06-13T15:10:04.565Z,2.47
2018-06-13T15:12:32.945Z,2.00
2018-06-13T15:15:01.300Z,2.83
2018-06-13T15:17:29.613Z,2.50
2018-06-13T15:19:57.945Z,2.70
2018-06-13T15:22:26.254Z,2.17
2018-06-13T15:24:54.585Z,2.37
2018-06-13T15:27:22.938Z,3.33
2018-06-13T15:29:51.250Z,3.03
2018-06-13T15:32:19.573Z,2.70
2018-06-13T15:34:47.929Z,3.00
2018-06-13T15:37:16.241Z,3.80
2018-06-13T15:39:44.574Z,3.43
2018-06-13T15:42:12.881Z,3.60
2018-06-13T15:44:41.270Z,3.37
2018-06-13T15:47:09.645Z,3.93
2018-06-13T15:49:37.972Z,4.03
2018-06-13T15:52:06.489Z,4.07
2018-06-13T15:54:34.814Z,4.13
2018-06-13T15:57:03.129Z,3.80
2018-06-13T15:59:31.536Z,4.43
2018-06-13T16:01:59.870Z,4.80
2018-06-13T16:04:28.201Z,5.10
2018-06-13T16:06:56.593Z,4.70
2018-06-13T16:09:24.929Z,5.13
2018-06-13T16:11:53.260Z,4.83
2018-06-13T16:14:21.679Z,4.33
2018-06-13T16:16:50.003Z,4.83
2018-06-13T16:19:18.331Z,4.67
2018-06-13T16:21:46.688Z,4.40
2018-06-13T16:24:15.009Z,5.00
2018-06-13T16:26:43.326Z,5.95
2018-06-13T16:29:11.661Z,5.85
2018-06-13T16:31:39.982Z,5.87
2018-06-13T16:34:08.345Z,6.23
2018-06-13T16:36:36.670Z,6.40
2018-06-13T16:39:07.510Z,5.87
2018-06-13T16:41:35.889Z,5.83
2018-06-13T16:44:04.256Z,5.50
2018-06-13T16:46:32.580Z,5.90
2018-06-13T16:49:00.898Z,5.27
2018-06-13T16:51:40.718Z,6.83
2018-06-13T16:54:14.326Z,5.10
2018-06-13T16:56:43.333Z,5.17
2018-06-13T16:59:11.644Z,5.15
2018-06-13T17:01:39.961Z,5.60
2018-06-13T17:04:08.399Z,6.10
2018-06-13T17:06:36.741Z,5.47
2018-06-13T17:09:07.276Z,5.93
2018-06-13T17:11:35.660Z,5.78
2018-06-13T17:14:03.993Z,5.92
2018-06-13T17:16:32.365Z,6.35
2018-06-13T17:19:00.762Z,5.25
2018-06-13T17:21:29.102Z,5.80
2018-06-13T17:23:57.412Z,6.23
2018-06-13T17:26:25.743Z,6.13
2018-06-13T17:28:54.045Z,5.73
2018-06-13T17:31:22.399Z,5.90
2018-06-13T17:33:50.718Z,5.87
2018-06-13T17:36:19.123Z,5.67
2018-06-13T17:38:47.457Z,6.33
2018-06-13T17:41:15.786Z,6.30
2018-06-13T17:43:44.088Z,6.07
2018-06-13T17:46:12.413Z,6.27
2018-06-13T17:48:40.721Z,5.80
2018-06-13T17:51:09.296Z,5.75
2018-06-13T17:53:37.677Z,5.87
2018-06-13T17:56:05.993Z,6.33
2018-06-13T17:58:34.409Z,6.22
2018-06-13T18:01:02.726Z,6.67
2018-06-13T18:03:31.061Z,6.47
2018-06-13T18:05:59.532Z,6.40
2018-06-13T18:08:27.861Z,7.07
2018-06-13T18:10:56.204Z,6.60
2018-06-13T18:13:24.549Z,7.60
2018-06-13T18:15:52.872Z,8.17
2018-06-13T18:18:21.205Z,8.15
2018-06-13T18:20:49.594Z,8.60
2018-06-13T18:23:17.938Z,7.70
2018-06-13T18:25:46.259Z,7.80
2018-06-13T18:28:14.594Z,7.70
2018-06-13T18:30:42.954Z,9.08
2018-06-13T18:33:11.333Z,9.10
2018-06-13T18:35:39.629Z,8.50
2018-06-13T18:38:07.953Z,8.17
2018-06-13T18:40:36.321Z,8.10
2018-06-13T18:43:04.697Z,9.53
2018-06-13T18:45:33.021Z,8.90
2018-06-13T18:48:01.364Z,7.33
2018-06-13T18:50:29.693Z,9.00
2018-06-13T18:52:58.031Z,8.00
2018-06-13T18:55:26.398Z,9.00
2018-06-13T18:57:54.737Z,7.97
2018-06-13T19:00:23.089Z,8.28
2018-06-13T19:02:51.184Z,9.23
2018-06-13T19:05:19.525Z,9.50
2018-06-13T19:07:47.960Z,10.18
2018-06-13T19:10:16.277Z,9.10
2018-06-13T19:12:44.649Z,9.53
2018-06-13T19:15:14.426Z,9.73
2018-06-13T19:17:43.172Z,9.45
2018-06-13T19:20:11.525Z,9.03
2018-06-13T19:22:39.840Z,9.20
2018-06-13T19:25:08.161Z,9.70
2018-06-13T19:27:36.477Z,9.33
2018-06-13T19:30:04.877Z,9.08
2018-06-13T19:32:33.197Z,8.73
2018-06-13T19:35:01.537Z,9.28
2018-06-13T19:37:29.863Z,9.20
2018-06-13T19:39:58.206Z,9.70
2018-06-13T19:42:26.617Z,8.85
2018-06-13T19:44:54.977Z,8.98
2018-06-13T19:47:28.670Z,10.08
2018-06-13T19:49:57.014Z,9.90
2018-06-13T19:52:29.561Z,8.60
2018-06-13T19:55:03.459Z,9.70
2018-06-13T19:57:31.768Z,9.23
2018-06-13T20:00:00.130Z,8.95
2018-06-13T20:03:36.990Z,9.80
2018-06-13T20:06:05.417Z,9.98
2018-06-13T20:08:34.089Z,10.32
2018-06-13T20:11:02.682Z,10.08
2018-06-13T20:13:36.498Z,10.10
2018-06-13T20:16:10.357Z,8.57
2018-06-13T20:18:44.156Z,11.83
2018-06-13T20:21:12.830Z,9.80
2018-06-13T20:23:42.221Z,9.70
2018-06-13T20:26:16.040Z,9.47
2018-06-13T20:28:49.769Z,9.90
2018-06-13T20:31:27.501Z,9.40
2018-06-13T20:33:55.905Z,10.40
2018-06-13T20:36:24.481Z,10.68
2018-06-13T20:38:52.803Z,10.45
2018-06-13T20:41:21.229Z,11.40
2018-06-13T20:43:49.555Z,10.05
2018-06-13T20:46:17.894Z,11.73
2018-06-13T20:48:46.219Z,9.35
2018-06-13T20:51:14.617Z,10.43
2018-06-13T20:53:43.016Z,11.65
2018-06-13T20:56:11.521Z,11.03
2018-06-13T20:58:39.853Z,9.88
2018-06-13T21:01:08.177Z,11.45
2018-06-13T21:03:36.517Z,9.30
2018-06-13T21:06:04.880Z,10.18
2018-06-13T21:08:33.214Z,10.47
2018-06-13T21:11:01.557Z,10.03
2018-06-13T21:13:29.944Z,10.40
2018-06-13T21:15:58.273Z,10.70
2018-06-13T21:18:26.613Z,10.75
2018-06-13T21:20:54.937Z,11.48
2018-06-13T21:23:23.285Z,10.65
2018-06-13T21:25:51.352Z,10.68
2018-06-13T21:28:19.702Z,12.03
2018-06-13T21:30:48.034Z,9.85
2018-06-13T21:33:16.377Z,11.08
2018-06-13T21:35:44.697Z,11.40
2018-06-13T21:38:13.032Z,11.53
2018-06-13T21:40:41.381Z,10.68
2018-06-13T21:43:09.742Z,10.90
2018-06-13T21:45:38.057Z,10.10
2018-06-13T21:48:06.465Z,10.25
2018-06-13T21:50:34.795Z,10.40
2018-06-13T21:53:03.138Z,10.18
2018-06-13T21:55:31.466Z,10.32
2018-06-13T21:57:59.814Z,10.63
2018-06-13T22:00:28.134Z,10.80
2018-06-13T22:02:56.482Z,11.18
2018-06-13T22:05:24.813Z,9.83
2018-06-13T22:07:53.256Z,10.93
2018-06-13T22:10:21.579Z,10.80
2018-06-13T22:12:49.931Z,10.93
2018-06-13T22:15:25.365Z,11.22
2018-06-13T22:17:55.372Z,11.12
2018-06-13T22:20:23.737Z,10.82
2018-06-13T22:22:52.057Z,11.50
2018-06-13T22:25:20.404Z,10.85
2018-06-13T22:27:48.728Z,11.40
2018-06-13T22:30:17.172Z,10.93
2018-06-13T22:32:45.834Z,11.07
2018-06-13T22:42:37.110Z,12.25
2018-06-13T22:45:05.488Z,10.80
2018-06-13T22:47:33.810Z,10.10
2018-06-13T22:50:02.195Z,11.03
2018-06-13T22:52:30.509Z,11.55
2018-06-13T22:54:58.844Z,10.93
2018-06-13T22:57:27.165Z,10.80
2018-06-13T22:59:55.504Z,11.48
2018-06-13T23:02:23.845Z,10.65
2018-06-13T23:04:52.177Z,11.53
2018-06-13T23:07:20.493Z,11.35
2018-06-13T23:09:48.833Z,12.28
2018-06-13T23:12:17.169Z,10.95
2018-06-13T23:14:45.513Z,12.00
2018-06-13T23:17:13.837Z,11.80
2018-06-13T23:19:42.194Z,11.48
2018-06-13T23:22:10.525Z,12.03
2018-06-13T23:24:38.865Z,11.83
2018-06-13T23:27:07.190Z,11.12
2018-06-13T23:29:35.526Z,11.07
2018-06-13T23:32:03.852Z,11.30
2018-06-13T23:34:31.957Z,11.17
2018-06-13T23:37:00.264Z,10.67
2018-06-13T23:39:28.581Z,10.90
2018-06-13T23:41:56.917Z,9.87
2018-06-13T23:44:25.238Z,11.07
2018-06-13T23:46:53.574Z,11.43
2018-06-13T23:49:21.894Z,11.13
2018-06-13T23:51:50.225Z,11.77
2018-06-13T23:54:18.537Z,10.47
2018-06-13T23:56:46.878Z,10.63
2018-06-13T23:59:15.194Z,11.43
